createdAt,value
2024-01-24T00:01:38.201Z,88.31
2024-01-24T00:04:07.191Z,88.57
2024-01-24T00:06:37.389Z,88.62
2024-01-24T00:09:06.062Z,88.77
2024-01-24T00:11:34.058Z,88.91
2024-01-24T00:14:01.891Z,89.01
2024-01-24T00:16:29.924Z,88.74
2024-01-24T00:18:58.174Z,89.45
2024-01-24T00:21:26.162Z,89.53
2024-01-24T00:23:54.147Z,89.35
2024-01-24T00:26:21.923Z,89.55
2024-01-24T00:28:49.723Z,89.81
2024-01-24T00:31:17.796Z,89.88
2024-01-24T00:33:45.800Z,90.36
2024-01-24T00:36:13.790Z,90.37
2024-01-24T00:38:41.702Z,90.46
2024-01-24T00:41:09.669Z,90.62
2024-01-24T00:43:37.517Z,90.37
2024-01-24T00:46:05.377Z,90.49
2024-01-24T00:48:33.254Z,90.40
2024-01-24T00:51:01.422Z,90.78
2024-01-24T00:53:33.979Z,91.05
2024-01-24T00:56:01.941Z,91.19
2024-01-24T00:58:29.885Z,91.41
2024-01-24T01:00:57.889Z,91.46
2024-01-24T01:03:25.958Z,91.32
2024-01-24T01:05:54.072Z,91.14
2024-01-24T01:08:22.069Z,90.99
2024-01-24T01:10:49.982Z,90.74
2024-01-24T01:13:17.941Z,90.70
2024-01-24T01:15:45.976Z,90.51
2024-01-24T01:18:13.864Z,90.24
2024-01-24T01:20:42.176Z,90.56
2024-01-24T01:23:10.391Z,90.34
2024-01-24T01:25:38.518Z,90.37
2024-01-24T01:28:06.578Z,90.54
2024-01-24T01:30:34.603Z,90.55
2024-01-24T01:33:02.695Z,90.44
2024-01-24T01:35:30.746Z,90.63
2024-01-24T01:37:58.673Z,90.42
2024-01-24T01:40:27.678Z,90.65
2024-01-24T01:42:55.611Z,90.65
2024-01-24T01:45:24.451Z,90.71
2024-01-24T01:47:52.700Z,90.30
2024-01-24T01:50:21.055Z,90.77
2024-01-24T01:52:49.259Z,90.88
2024-01-24T01:55:17.535Z,90.86
2024-01-24T01:57:47.834Z,90.76
2024-01-24T02:00:26.228Z,90.85
2024-01-24T02:02:54.600Z,90.83
2024-01-24T02:05:22.690Z,90.77
2024-01-24T02:07:51.026Z,90.79
2024-01-24T02:10:19.272Z,90.59
2024-01-24T02:12:47.282Z,90.73
2024-01-24T02:15:16.187Z,90.54
2024-01-24T02:17:44.464Z,90.50
2024-01-24T02:20:13.922Z,90.81
2024-01-24T02:22:41.819Z,90.74
2024-01-24T02:25:09.708Z,90.48
2024-01-24T02:27:38.025Z,90.24
2024-01-24T02:30:06.878Z,90.23
2024-01-24T02:32:34.824Z,90.61
2024-01-24T02:35:02.648Z,90.43
2024-01-24T02:37:31.582Z,90.24
2024-01-24T02:39:59.558Z,90.44
2024-01-24T02:42:27.574Z,90.26
2024-01-24T02:44:55.616Z,90.04
2024-01-24T02:47:23.622Z,90.00
2024-01-24T02:49:52.034Z,89.74
2024-01-24T02:52:20.002Z,89.90
2024-01-24T02:54:48.489Z,89.81
2024-01-24T02:57:16.847Z,89.61
2024-01-24T02:59:45.022Z,89.16
2024-01-24T03:02:13.067Z,89.43
2024-01-24T03:04:40.933Z,89.52
2024-01-24T03:07:09.932Z,89.47
2024-01-24T03:09:38.038Z,89.08
2024-01-24T03:12:06.209Z,89.27
2024-01-24T03:14:34.117Z,89.53
2024-01-24T03:17:02.506Z,89.26
2024-01-24T03:19:30.870Z,89.37
2024-01-24T03:21:59.381Z,89.47
2024-01-24T03:24:27.557Z,89.65
2024-01-24T03:26:55.796Z,89.68
2024-01-24T03:29:23.665Z,89.42
2024-01-24T03:31:51.449Z,89.50
2024-01-24T03:34:19.571Z,89.55
2024-01-24T03:36:47.606Z,89.61
2024-01-24T03:39:15.843Z,89.59
2024-01-24T03:41:43.819Z,89.77
2024-01-24T03:44:11.768Z,90.13
2024-01-24T03:46:39.921Z,90.25
2024-01-24T03:49:08.272Z,90.53
2024-01-24T03:51:36.354Z,90.66
2024-01-24T03:54:04.423Z,90.63
2024-01-24T03:56:32.589Z,90.71
2024-01-24T03:59:00.635Z,90.62
2024-01-24T04:01:28.545Z,90.74
2024-01-24T04:03:56.695Z,90.64
2024-01-24T04:06:24.782Z,90.70
2024-01-24T04:08:53.010Z,90.44
2024-01-24T04:11:20.875Z,90.35
2024-01-24T04:13:54.791Z,90.39
2024-01-24T04:16:22.640Z,90.36
2024-01-24T04:18:53.953Z,90.27
2024-01-24T04:21:22.123Z,90.11
2024-01-24T04:23:50.727Z,90.31
2024-01-24T04:26:22.558Z,90.04
2024-01-24T04:28:50.396Z,90.13
2024-01-24T04:31:18.444Z,90.04
2024-01-24T04:33:46.608Z,89.86
2024-01-24T04:36:14.789Z,89.91
2024-01-24T04:38:44.837Z,89.63
2024-01-24T04:41:13.215Z,89.53
2024-01-24T04:43:41.287Z,89.50
2024-01-24T04:46:16.204Z,89.26
2024-01-24T04:48:46.364Z,89.62
2024-01-24T04:51:14.846Z,89.20
2024-01-24T04:53:43.181Z,89.66
2024-01-24T04:56:11.368Z,89.48
2024-01-24T04:58:41.757Z,88.97
2024-01-24T05:01:09.860Z,89.11
2024-01-24T05:03:39.049Z,89.01
2024-01-24T05:06:10.944Z,88.82
2024-01-24T05:08:40.753Z,88.61
2024-01-24T05:11:08.816Z,88.04
2024-01-24T05:13:38.099Z,88.28
2024-01-24T05:16:06.462Z,88.18
2024-01-24T05:18:34.523Z,87.91
2024-01-24T05:21:03.750Z,87.88
2024-01-24T05:23:31.721Z,87.85
2024-01-24T05:25:59.696Z,87.84
2024-01-24T05:28:27.660Z,87.55
2024-01-24T05:30:55.679Z,87.27
2024-01-24T05:33:24.852Z,87.60
2024-01-24T05:35:53.656Z,87.32
2024-01-24T05:38:21.678Z,87.39
2024-01-24T05:40:49.957Z,87.19
2024-01-24T05:43:17.868Z,87.16
2024-01-24T05:45:45.880Z,87.29
2024-01-24T05:48:15.554Z,86.93
2024-01-24T05:50:43.658Z,87.16
2024-01-24T05:53:11.724Z,87.10
2024-01-24T05:55:39.713Z,87.08
2024-01-24T05:58:07.815Z,87.00
2024-01-24T06:00:36.577Z,86.69
2024-01-24T06:03:04.923Z,86.56
2024-01-24T06:05:34.233Z,86.53
2024-01-24T06:08:03.796Z,86.31
2024-01-24T06:10:32.219Z,86.09
2024-01-24T06:13:00.216Z,86.23
2024-01-24T06:15:28.890Z,86.13
2024-01-24T06:17:57.127Z,86.34
2024-01-24T06:20:25.288Z,85.91
2024-01-24T06:22:53.146Z,85.97
2024-01-24T06:25:22.129Z,86.14
2024-01-24T06:27:50.011Z,85.67
2024-01-24T06:30:22.515Z,85.97
2024-01-24T06:32:54.813Z,86.39
2024-01-24T06:35:23.123Z,86.53
2024-01-24T06:37:52.817Z,86.74
2024-01-24T06:40:21.488Z,87.16
2024-01-24T06:42:50.417Z,87.20
2024-01-24T06:45:18.470Z,87.96
2024-01-24T06:47:47.139Z,88.60
2024-01-24T06:50:15.751Z,88.42
2024-01-24T06:52:43.984Z,88.50
2024-01-24T06:55:14.980Z,88.79
2024-01-24T06:57:43.294Z,89.04
2024-01-24T07:00:12.138Z,89.29
2024-01-24T07:02:40.555Z,89.43
2024-01-24T07:05:08.667Z,89.55
2024-01-24T07:07:38.631Z,89.78
2024-01-24T07:10:12.939Z,89.77
2024-01-24T07:12:47.134Z,89.77
2024-01-24T07:15:19.932Z,90.38
2024-01-24T07:17:48.334Z,90.33
2024-01-24T07:20:17.635Z,90.49
2024-01-24T07:22:45.628Z,90.76
2024-01-24T07:25:13.689Z,90.85
2024-01-24T07:27:42.014Z,91.32
2024-01-24T07:30:10.632Z,91.18
2024-01-24T07:32:42.274Z,91.53
2024-01-24T07:35:10.903Z,91.77
2024-01-24T07:37:39.021Z,92.13
2024-01-24T07:40:19.015Z,92.09
2024-01-24T07:42:47.640Z,92.15
2024-01-24T07:45:16.202Z,92.14
2024-01-24T07:47:45.769Z,92.13
2024-01-24T07:50:14.561Z,92.35
2024-01-24T07:52:44.103Z,92.29
2024-01-24T07:55:13.231Z,92.61
2024-01-24T07:57:42.256Z,93.02
2024-01-24T08:00:18.118Z,93.11
2024-01-24T08:02:49.216Z,93.46
2024-01-24T08:05:20.588Z,93.83
2024-01-24T08:07:49.288Z,93.81
2024-01-24T08:10:18.711Z,93.74
2024-01-24T08:12:47.042Z,93.50
2024-01-24T08:15:15.986Z,93.59
2024-01-24T08:17:45.001Z,94.63
2024-01-24T08:20:13.384Z,94.95
2024-01-24T08:22:41.493Z,94.89
2024-01-24T08:25:09.711Z,94.92
2024-01-24T08:27:38.233Z,95.08
2024-01-24T08:30:07.537Z,95.10
2024-01-24T08:32:35.713Z,95.05
2024-01-24T08:35:05.211Z,95.14
2024-01-24T08:45:10.375Z,95.37
2024-01-24T08:47:38.524Z,95.16
2024-01-24T08:50:07.823Z,96.73
2024-01-24T08:52:36.814Z,96.72
2024-01-24T08:55:08.623Z,96.04
2024-01-24T08:57:36.846Z,96.28
2024-01-24T09:00:05.820Z,96.10
2024-01-24T09:02:34.940Z,95.89
2024-01-24T09:05:03.187Z,96.01
2024-01-24T09:07:32.889Z,96.30
2024-01-24T09:10:01.789Z,96.31
2024-01-24T09:12:32.336Z,96.71
2024-01-24T09:15:00.281Z,97.22
2024-01-24T09:17:28.618Z,97.17
2024-01-24T09:19:56.910Z,97.17
2024-01-24T09:22:25.132Z,97.09
2024-01-24T09:24:53.254Z,97.43
2024-01-24T09:27:21.691Z,97.15
2024-01-24T09:29:49.544Z,97.32
2024-01-24T09:32:17.718Z,97.54
2024-01-24T09:34:45.796Z,97.67
2024-01-24T09:37:13.998Z,98.09
2024-01-24T09:39:42.056Z,97.92
2024-01-24T09:42:20.514Z,98.10
2024-01-24T09:44:52.436Z,98.31
2024-01-24T09:47:25.968Z,98.94
2024-01-24T09:49:54.590Z,98.88
2024-01-24T09:52:26.292Z,99.04
2024-01-24T09:55:00.955Z,99.14
2024-01-24T09:57:29.461Z,99.16
2024-01-24T09:59:57.785Z,99.47
2024-01-24T10:02:29.376Z,99.23
2024-01-24T10:04:59.994Z,99.05
2024-01-24T10:07:28.629Z,99.23
2024-01-24T10:10:11.133Z,99.35
2024-01-24T10:12:43.426Z,100.00
2024-01-24T10:15:12.296Z,100.00
2024-01-24T10:17:44.606Z,100.00
2024-01-24T10:20:13.671Z,100.00
2024-01-24T10:22:44.657Z,100.00
2024-01-24T10:25:13.221Z,100.00
2024-01-24T10:27:43.098Z,100.00
2024-01-24T10:30:14.122Z,100.00
2024-01-24T10:32:49.800Z,100.00
2024-01-24T10:35:18.409Z,100.00
2024-01-24T10:37:47.154Z,100.00
2024-01-24T10:40:17.391Z,100.00
2024-01-24T10:42:47.216Z,100.00
2024-01-24T10:45:17.227Z,100.00
2024-01-24T10:47:46.318Z,100.00
2024-01-24T10:50:17.029Z,100.00
2024-01-24T10:52:45.810Z,100.00
2024-01-24T10:55:16.133Z,100.00
2024-01-24T10:57:45.838Z,100.00
2024-01-24T11:00:17.152Z,100.00
2024-01-24T11:02:45.871Z,100.00
2024-01-24T11:05:39.232Z,100.00
2024-01-24T11:08:12.825Z,100.00
2024-01-24T11:10:43.526Z,100.00
2024-01-24T11:13:12.947Z,100.00
2024-01-24T11:15:42.061Z,100.00
2024-01-24T11:18:34.910Z,100.00
2024-01-24T11:21:03.170Z,100.00
2024-01-24T11:23:42.458Z,100.00
2024-01-24T11:26:31.626Z,100.00
2024-01-24T11:29:06.902Z,100.00
2024-01-24T11:31:43.234Z,100.00
2024-01-24T11:34:13.389Z,100.00
2024-01-24T11:36:49.200Z,100.00
2024-01-24T11:39:38.739Z,100.00
2024-01-24T11:42:25.725Z,100.00
2024-01-24T11:44:54.247Z,100.00
2024-01-24T11:47:25.722Z,100.00
2024-01-24T11:49:56.153Z,100.00
2024-01-24T11:52:24.228Z,100.00
2024-01-24T11:54:53.614Z,100.00
2024-01-24T11:57:21.832Z,100.00
2024-01-24T11:59:49.927Z,100.00
2024-01-24T12:02:18.298Z,100.00
2024-01-24T12:04:50.793Z,100.00
2024-01-24T12:07:20.308Z,100.00
2024-01-24T12:09:49.650Z,100.00
2024-01-24T12:12:19.382Z,100.00
2024-01-24T12:14:48.076Z,100.00
2024-01-24T12:17:16.893Z,100.00
2024-01-24T12:19:46.445Z,100.00
2024-01-24T12:22:16.949Z,100.00
2024-01-24T12:24:45.415Z,100.00
2024-01-24T12:27:39.802Z,100.00
2024-01-24T12:30:11.298Z,100.00
2024-01-24T12:32:42.008Z,100.00
2024-01-24T12:35:14.099Z,100.00
2024-01-24T12:37:43.395Z,100.00
2024-01-24T12:40:13.568Z,100.00
2024-01-24T12:42:42.484Z,100.00
2024-01-24T12:45:14.687Z,100.00
2024-01-24T12:47:44.149Z,100.00
2024-01-24T12:50:12.688Z,100.00
2024-01-24T12:52:42.031Z,100.00
2024-01-24T12:55:10.133Z,99.72
2024-01-24T12:57:38.467Z,99.99
2024-01-24T13:00:11.269Z,100.00
2024-01-24T13:02:40.394Z,100.00
2024-01-24T13:05:09.784Z,100.00
2024-01-24T13:07:38.629Z,99.99
2024-01-24T13:10:08.278Z,99.88
2024-01-24T13:12:36.881Z,100.00
2024-01-24T13:15:11.313Z,100.00
2024-01-24T13:17:39.398Z,100.00
2024-01-24T13:20:10.562Z,100.00
2024-01-24T13:22:38.741Z,99.86
2024-01-24T13:25:07.289Z,100.00
2024-01-24T13:27:35.261Z,100.00
2024-01-24T13:30:03.360Z,99.93
2024-01-24T13:32:31.471Z,100.00
2024-01-24T13:34:59.797Z,100.00
2024-01-24T13:37:28.119Z,100.00
2024-01-24T13:39:56.687Z,100.00
2024-01-24T13:42:24.913Z,100.00
2024-01-24T13:44:53.365Z,100.00
2024-01-24T13:47:21.684Z,100.00
2024-01-24T13:49:49.936Z,100.00
2024-01-24T13:52:18.662Z,100.00
2024-01-24T13:54:46.846Z,100.00
2024-01-24T13:57:15.239Z,100.00
2024-01-24T13:59:43.552Z,100.00
2024-01-24T14:02:12.517Z,100.00
2024-01-24T14:04:40.711Z,100.00
2024-01-24T14:07:08.925Z,100.00
2024-01-24T14:09:37.562Z,100.00
2024-01-24T14:12:09.696Z,100.00
2024-01-24T14:14:37.852Z,100.00
2024-01-24T14:17:05.994Z,100.00
2024-01-24T14:19:34.658Z,100.00
2024-01-24T14:22:02.903Z,100.00
2024-01-24T14:24:30.966Z,100.00
2024-01-24T14:26:58.899Z,100.00
2024-01-24T14:29:26.871Z,99.70
2024-01-24T14:31:54.859Z,99.99
2024-01-24T14:34:23.640Z,100.00
2024-01-24T14:36:55.710Z,100.00
2024-01-24T14:39:31.668Z,99.99
2024-01-24T14:41:59.807Z,99.96
2024-01-24T14:44:27.850Z,100.00
2024-01-24T14:46:55.666Z,100.00
2024-01-24T14:49:25.959Z,100.00
2024-01-24T14:51:54.096Z,100.00
2024-01-24T14:54:22.071Z,99.49
2024-01-24T14:56:50.329Z,99.84
2024-01-24T14:59:18.649Z,99.41
2024-01-24T15:01:46.748Z,99.53
2024-01-24T15:04:15.030Z,99.94
2024-01-24T15:06:43.227Z,100.00
2024-01-24T15:09:14.200Z,100.00
2024-01-24T15:11:42.844Z,99.94
2024-01-24T15:14:10.709Z,99.77
2024-01-24T15:16:38.673Z,99.96
2024-01-24T15:19:06.847Z,100.00
2024-01-24T15:21:34.972Z,100.00
2024-01-24T15:24:07.293Z,100.00
2024-01-24T15:26:36.245Z,100.00
2024-01-24T15:29:05.917Z,100.00
2024-01-24T15:31:34.140Z,100.00
2024-01-24T15:34:05.314Z,100.00
2024-01-24T15:36:33.707Z,100.00
2024-01-24T15:39:02.539Z,100.00
2024-01-24T15:41:30.970Z,100.00
2024-01-24T15:43:59.223Z,100.00
2024-01-24T15:46:28.287Z,100.00
2024-01-24T15:48:57.390Z,100.00
2024-01-24T15:51:25.712Z,100.00
2024-01-24T15:53:54.022Z,100.00
2024-01-24T15:56:22.253Z,100.00
2024-01-24T15:58:50.389Z,100.00
2024-01-24T16:01:18.798Z,100.00
2024-01-24T16:03:47.097Z,100.00
2024-01-24T16:06:16.143Z,100.00
2024-01-24T16:08:44.178Z,100.00
2024-01-24T16:11:12.099Z,100.00
2024-01-24T16:13:40.281Z,100.00
2024-01-24T16:16:08.645Z,100.00
2024-01-24T16:18:36.686Z,100.00
2024-01-24T16:21:05.730Z,99.96
2024-01-24T16:23:33.695Z,99.92
2024-01-24T16:26:02.055Z,99.79
2024-01-24T16:28:30.081Z,99.23
2024-01-24T16:30:58.440Z,99.02
2024-01-24T16:33:27.424Z,99.35
2024-01-24T16:35:57.481Z,99.54
2024-01-24T16:38:25.363Z,99.75
2024-01-24T16:40:54.120Z,100.00
2024-01-24T16:43:23.641Z,100.00
2024-01-24T16:45:52.089Z,100.00
2024-01-24T16:48:20.298Z,100.00
2024-01-24T16:50:48.400Z,100.00
2024-01-24T16:53:18.724Z,100.00
2024-01-24T16:55:46.963Z,100.00
2024-01-24T16:58:15.758Z,100.00
2024-01-24T17:00:45.110Z,99.81
2024-01-24T17:03:13.556Z,99.86
2024-01-24T17:05:41.790Z,99.84
2024-01-24T17:08:09.726Z,99.43
2024-01-24T17:10:37.669Z,99.59
2024-01-24T17:13:06.345Z,99.78
2024-01-24T17:15:34.417Z,99.66
2024-01-24T17:18:05.432Z,99.01
2024-01-24T17:20:34.146Z,98.99
2024-01-24T17:23:02.106Z,99.17
2024-01-24T17:25:30.060Z,99.00
2024-01-24T17:27:58.496Z,98.91
2024-01-24T17:30:26.545Z,98.81
2024-01-24T17:32:54.883Z,98.47
2024-01-24T17:35:22.886Z,98.49
2024-01-24T17:37:50.989Z,98.30
2024-01-24T17:40:18.932Z,98.30
2024-01-24T17:42:47.304Z,98.02
2024-01-24T17:45:15.655Z,97.84
2024-01-24T17:47:43.777Z,97.72
2024-01-24T17:50:13.026Z,97.68
2024-01-24T17:52:43.795Z,97.33
2024-01-24T17:55:12.003Z,97.24
2024-01-24T17:57:40.251Z,97.34
2024-01-24T18:00:09.141Z,97.32
2024-01-24T18:02:37.152Z,97.16
2024-01-24T18:05:07.105Z,97.01
2024-01-24T18:07:35.266Z,96.84
2024-01-24T18:10:03.659Z,96.70
2024-01-24T18:12:32.710Z,96.73
2024-01-24T18:15:01.014Z,96.57
2024-01-24T18:17:29.407Z,96.27
2024-01-24T18:19:57.600Z,96.02
2024-01-24T18:22:25.609Z,95.96
2024-01-24T18:24:53.769Z,95.76
2024-01-24T18:27:22.083Z,95.66
2024-01-24T18:29:53.668Z,95.63
2024-01-24T18:32:21.899Z,95.40
2024-01-24T18:34:50.526Z,95.23
2024-01-24T18:37:19.326Z,95.26
2024-01-24T18:39:49.033Z,95.11
2024-01-24T18:42:17.498Z,95.39
2024-01-24T18:44:45.938Z,95.50
2024-01-24T18:47:14.434Z,95.68
2024-01-24T18:49:43.929Z,95.71
2024-01-24T18:52:14.345Z,96.50
2024-01-24T18:54:45.937Z,96.45
2024-01-24T18:57:13.966Z,96.44
2024-01-24T18:59:42.504Z,96.98
2024-01-24T19:02:12.831Z,96.97
2024-01-24T19:04:41.611Z,96.99
2024-01-24T19:07:10.098Z,97.18
2024-01-24T19:09:38.908Z,97.50
2024-01-24T19:12:09.492Z,97.67
2024-01-24T19:14:38.849Z,97.67
2024-01-24T19:17:07.763Z,97.90
2024-01-24T19:19:36.672Z,97.98
2024-01-24T19:22:05.458Z,98.06
2024-01-24T19:24:35.241Z,98.11
2024-01-24T19:27:04.936Z,98.23
2024-01-24T19:29:33.139Z,98.29
2024-01-24T19:32:01.292Z,98.19
2024-01-24T19:34:29.699Z,98.21
2024-01-24T19:36:57.878Z,98.18
2024-01-24T19:39:25.979Z,98.30
2024-01-24T19:41:54.010Z,98.24
2024-01-24T19:44:22.062Z,98.02
2024-01-24T19:46:50.187Z,97.76
2024-01-24T19:49:18.412Z,97.80
2024-01-24T19:51:49.414Z,97.76
2024-01-24T19:54:18.466Z,97.73
2024-01-24T19:56:46.516Z,97.77
2024-01-24T19:59:14.581Z,97.67
2024-01-24T20:01:42.816Z,97.22
2024-01-24T20:04:11.223Z,97.22
2024-01-24T20:06:39.494Z,97.17
2024-01-24T20:09:08.279Z,96.96
2024-01-24T20:11:36.209Z,96.94
2024-01-24T20:14:14.035Z,96.66
2024-01-24T20:16:42.590Z,96.74
2024-01-24T20:19:10.913Z,96.81
2024-01-24T20:21:41.629Z,96.81
2024-01-24T20:24:13.185Z,96.31
2024-01-24T20:26:41.765Z,96.44
2024-01-24T20:29:09.894Z,96.29
2024-01-24T20:31:40.393Z,96.00
2024-01-24T20:34:10.695Z,95.90
2024-01-24T20:36:44.200Z,95.52
2024-01-24T20:39:26.926Z,95.29
2024-01-24T20:42:05.705Z,95.12
2024-01-24T20:44:42.337Z,94.74
2024-01-24T20:47:11.285Z,94.74
2024-01-24T20:49:39.640Z,94.33
2024-01-24T20:52:07.919Z,94.47
2024-01-24T20:54:36.356Z,94.37
2024-01-24T20:57:04.770Z,94.16
2024-01-24T20:59:33.396Z,94.16
2024-01-24T21:02:02.067Z,94.35
2024-01-24T21:04:30.491Z,94.07
2024-01-24T21:06:59.442Z,94.28
2024-01-24T21:09:29.435Z,94.37
2024-01-24T21:11:58.729Z,94.46
2024-01-24T21:14:27.202Z,93.97
2024-01-24T21:16:59.650Z,93.67
2024-01-24T21:19:28.308Z,93.40
2024-01-24T21:21:56.898Z,93.40
2024-01-24T21:24:25.189Z,93.85
2024-01-24T21:26:53.504Z,94.18
2024-01-24T21:29:22.405Z,94.40
2024-01-24T21:31:50.417Z,94.81
2024-01-24T21:34:19.282Z,94.99
2024-01-24T21:36:48.757Z,95.42
2024-01-24T21:39:30.395Z,95.60
2024-01-24T21:41:59.022Z,95.52
2024-01-24T21:44:27.014Z,95.68
2024-01-24T21:46:55.044Z,95.49
2024-01-24T21:49:29.781Z,95.16
2024-01-24T21:51:59.840Z,94.87
2024-01-24T21:54:28.035Z,94.44
2024-01-24T21:56:56.029Z,94.33
2024-01-24T21:59:24.006Z,93.94
2024-01-24T22:01:52.124Z,93.53
2024-01-24T22:04:20.312Z,93.12
2024-01-24T22:06:48.387Z,92.91
2024-01-24T22:09:16.813Z,92.47
2024-01-24T22:11:44.690Z,92.57
2024-01-24T22:14:12.757Z,92.41
2024-01-24T22:16:40.702Z,92.54
2024-01-24T22:19:09.124Z,92.39
2024-01-24T22:21:43.976Z,92.08
2024-01-24T22:24:12.530Z,91.82
2024-01-24T22:26:41.339Z,91.58
2024-01-24T22:29:10.689Z,91.86
2024-01-24T22:31:38.892Z,92.58
2024-01-24T22:34:07.267Z,92.41
2024-01-24T22:36:35.450Z,91.97
2024-01-24T22:39:03.613Z,92.23
2024-01-24T22:41:31.643Z,92.28
2024-01-24T22:43:59.855Z,92.39
2024-01-24T22:46:28.344Z,92.44
2024-01-24T22:48:57.895Z,92.39
2024-01-24T22:51:26.110Z,92.63
2024-01-24T22:53:55.856Z,93.27
2024-01-24T22:56:24.105Z,93.28
2024-01-24T22:58:52.147Z,93.05
2024-01-24T23:01:20.439Z,93.05
2024-01-24T23:03:49.339Z,93.31
2024-01-24T23:06:18.364Z,93.27
2024-01-24T23:08:46.475Z,93.56
2024-01-24T23:11:14.586Z,93.95
2024-01-24T23:13:42.467Z,94.30
2024-01-24T23:16:10.645Z,94.14
2024-01-24T23:18:38.785Z,94.13
2024-01-24T23:21:06.955Z,94.41
2024-01-24T23:23:35.236Z,94.65
2024-01-24T23:26:03.094Z,94.55
2024-01-24T23:28:31.238Z,94.26
2024-01-24T23:30:59.527Z,93.79
2024-01-24T23:33:31.517Z,93.76
2024-01-24T23:35:59.668Z,93.51
2024-01-24T23:38:27.681Z,93.51
2024-01-24T23:40:55.624Z,93.33
2024-01-24T23:43:23.842Z,93.17
2024-01-24T23:45:51.855Z,92.83
2024-01-24T23:48:19.945Z,92.79
2024-01-24T23:50:48.117Z,92.63
2024-01-24T23:53:16.303Z,92.61
2024-01-24T23:55:44.393Z,92.54
2024-01-24T23:58:12.585Z,92.27
